createdAt,value
2022-09-07T00:02:16.434Z,5.50
2022-09-07T00:04:43.639Z,10.23
2022-09-07T00:07:10.803Z,8.43
2022-09-07T00:09:37.982Z,5.90
2022-09-07T00:12:05.254Z,7.57
2022-09-07T00:14:32.404Z,9.07
2022-09-07T00:16:59.588Z,6.72
2022-09-07T00:19:26.933Z,9.05
2022-09-07T00:21:54.033Z,7.60
2022-09-07T00:24:21.207Z,6.35
2022-09-07T00:26:48.410Z,5.47
2022-09-07T00:29:15.549Z,7.40
2022-09-07T00:31:42.778Z,10.20
2022-09-07T00:34:09.948Z,8.50
2022-09-07T00:36:37.100Z,8.63
2022-09-07T00:39:04.650Z,4.88
2022-09-07T00:41:31.908Z,7.43
2022-09-07T00:44:00.440Z,5.68
2022-09-07T00:46:32.166Z,8.23
2022-09-07T00:49:14.118Z,9.48
2022-09-07T00:51:50.396Z,9.88
2022-09-07T00:54:24.185Z,8.93
2022-09-07T00:56:52.881Z,6.70
2022-09-07T00:59:22.386Z,7.82
2022-09-07T01:01:50.160Z,7.75
2022-09-07T01:04:17.491Z,6.25
2022-09-07T01:06:44.655Z,5.13
2022-09-07T01:09:15.034Z,10.18
2022-09-07T01:11:45.719Z,7.20
2022-09-07T01:14:14.863Z,7.33
2022-09-07T01:16:53.961Z,6.75
2022-09-07T01:19:39.142Z,8.02
2022-09-07T01:22:09.098Z,4.97
2022-09-07T01:24:41.635Z,5.80
2022-09-07T01:27:27.198Z,6.35
2022-09-07T01:30:14.137Z,6.72
2022-09-07T01:32:44.377Z,7.30
2022-09-07T01:35:18.172Z,4.82
2022-09-07T01:38:06.441Z,5.32
2022-09-07T01:40:41.169Z,7.40
2022-09-07T01:43:11.102Z,8.68
2022-09-07T01:45:40.568Z,7.53
2022-09-07T01:48:09.066Z,7.60
2022-09-07T01:50:39.440Z,7.45
2022-09-07T01:53:19.644Z,6.32
2022-09-07T01:55:53.582Z,6.47
2022-09-07T01:58:25.823Z,4.82
2022-09-07T02:00:59.523Z,5.72
2022-09-07T02:03:32.216Z,11.07
2022-09-07T02:06:05.583Z,5.55
2022-09-07T02:08:36.302Z,5.95
2022-09-07T02:11:07.698Z,7.67
2022-09-07T02:13:37.906Z,6.93
2022-09-07T02:16:09.920Z,5.43
2022-09-07T02:18:45.120Z,5.25
2022-09-07T02:21:13.626Z,5.10
2022-09-07T02:23:45.172Z,6.45
2022-09-07T02:26:15.101Z,5.25
2022-09-07T02:28:42.420Z,5.30
2022-09-07T02:31:09.803Z,7.13
2022-09-07T02:33:37.127Z,4.30
2022-09-07T02:36:05.345Z,6.65
2022-09-07T02:38:33.293Z,5.90
2022-09-07T02:41:02.055Z,6.25
2022-09-07T02:43:30.308Z,4.50
2022-09-07T02:46:06.601Z,6.03
2022-09-07T02:48:46.334Z,7.35
2022-09-07T02:51:23.909Z,4.47
2022-09-07T02:53:51.014Z,8.60
2022-09-07T02:56:38.425Z,4.47
2022-09-07T02:59:05.576Z,5.60
2022-09-07T03:01:40.562Z,5.43
2022-09-07T03:04:24.730Z,4.07
2022-09-07T03:06:51.849Z,6.18
2022-09-07T03:09:24.275Z,4.40
2022-09-07T03:11:51.527Z,5.65
2022-09-07T03:14:22.910Z,6.68
2022-09-07T03:16:51.085Z,5.18
2022-09-07T03:19:18.602Z,4.90
2022-09-07T03:21:46.089Z,5.95
2022-09-07T03:24:13.259Z,6.38
2022-09-07T03:26:43.634Z,8.25
2022-09-07T03:29:10.749Z,9.50
2022-09-07T03:31:37.930Z,8.18
2022-09-07T03:34:05.086Z,5.45
2022-09-07T03:36:32.628Z,6.95
2022-09-07T03:39:00.032Z,5.18
2022-09-07T03:41:27.755Z,11.77
2022-09-07T03:43:54.948Z,8.27
2022-09-07T03:46:22.308Z,5.95
2022-09-07T03:48:50.406Z,6.40
2022-09-07T03:51:18.842Z,6.45
2022-09-07T03:53:46.776Z,5.32
2022-09-07T03:56:21.111Z,10.93
2022-09-07T03:58:49.162Z,6.07
2022-09-07T04:01:18.201Z,4.70
2022-09-07T04:03:45.827Z,7.05
2022-09-07T04:06:13.474Z,6.15
2022-09-07T04:08:40.934Z,9.50
2022-09-07T04:11:09.804Z,7.25
2022-09-07T04:13:37.278Z,8.82
2022-09-07T04:16:11.562Z,4.60
2022-09-07T04:18:38.742Z,8.88
2022-09-07T04:21:05.995Z,6.75
2022-09-07T04:23:33.288Z,4.63
2022-09-07T04:26:00.597Z,5.25
2022-09-07T04:28:27.828Z,6.03
2022-09-07T04:30:55.132Z,7.80
2022-09-07T04:33:22.404Z,7.80
2022-09-07T04:35:49.546Z,6.90
2022-09-07T04:38:17.216Z,7.88
2022-09-07T04:40:44.663Z,13.93
2022-09-07T04:43:13.207Z,6.82
2022-09-07T04:45:40.522Z,6.65
2022-09-07T04:48:08.021Z,6.75
2022-09-07T04:50:35.246Z,6.07
2022-09-07T04:53:02.434Z,5.68
2022-09-07T04:55:29.659Z,5.63
2022-09-07T04:57:56.776Z,6.90
2022-09-07T05:00:23.894Z,7.57
2022-09-07T05:02:51.053Z,6.75
2022-09-07T05:05:18.251Z,7.30
2022-09-07T05:07:45.537Z,6.57
2022-09-07T05:10:12.755Z,5.90
2022-09-07T05:12:40.007Z,7.25
2022-09-07T05:15:07.375Z,6.57
2022-09-07T05:17:34.588Z,9.25
2022-09-07T05:20:01.698Z,9.85
2022-09-07T05:22:28.911Z,5.82
2022-09-07T05:24:56.688Z,6.70
2022-09-07T05:27:24.045Z,6.68
2022-09-07T05:32:25.339Z,5.70
2022-09-07T05:34:53.495Z,6.68
2022-09-07T05:37:20.676Z,7.85
2022-09-07T05:39:48.170Z,11.82
2022-09-07T05:42:15.364Z,7.03
2022-09-07T05:47:14.795Z,7.68
2022-09-07T05:49:41.932Z,10.60
2022-09-07T05:52:09.085Z,8.68
2022-09-07T05:54:36.274Z,10.32
2022-09-07T05:57:03.600Z,10.85
2022-09-07T05:59:30.836Z,9.38
2022-09-07T06:01:58.088Z,5.85
2022-09-07T06:04:25.264Z,8.15
2022-09-07T06:07:18.063Z,11.00
2022-09-07T06:12:26.792Z,7.75
2022-09-07T06:14:53.901Z,7.72
2022-09-07T06:17:21.057Z,9.65
2022-09-07T06:19:48.178Z,7.93
2022-09-07T06:22:15.307Z,11.68
2022-09-07T06:24:42.437Z,6.30
2022-09-07T06:27:09.529Z,15.27
2022-09-07T06:29:36.655Z,7.30
2022-09-07T06:34:51.210Z,6.75
2022-09-07T06:37:18.338Z,7.55
2022-09-07T06:39:45.655Z,11.52
2022-09-07T06:42:12.834Z,5.88
2022-09-07T06:44:39.994Z,6.95
2022-09-07T06:47:07.126Z,8.07
2022-09-07T06:49:34.398Z,14.55
2022-09-07T06:52:01.551Z,9.10
2022-09-07T06:57:15.907Z,10.50
2022-09-07T06:59:43.001Z,13.20
2022-09-07T07:02:11.018Z,9.63
2022-09-07T07:04:41.204Z,9.85
2022-09-07T07:07:12.368Z,10.80
2022-09-07T07:09:39.596Z,7.70
2022-09-07T07:12:06.768Z,7.60
2022-09-07T07:14:36.463Z,8.75
2022-09-07T07:17:05.778Z,12.38
2022-09-07T07:19:32.905Z,16.98
2022-09-07T07:22:45.984Z,6.63
2022-09-07T07:24:47.097Z,6.85
2022-09-07T07:27:14.215Z,9.57
2022-09-07T07:29:41.344Z,7.43
2022-09-07T07:32:08.455Z,6.07
2022-09-07T07:34:35.585Z,6.88
2022-09-07T07:37:02.703Z,5.20
2022-09-07T07:42:17.024Z,8.88
2022-09-07T07:44:44.083Z,5.45
2022-09-07T07:47:11.186Z,3.65
2022-09-07T07:49:38.395Z,5.18
2022-09-07T07:54:54.020Z,3.70
2022-09-07T07:57:21.406Z,6.90
2022-09-07T07:59:48.542Z,5.13
2022-09-07T08:02:16.830Z,6.15
2022-09-07T08:04:44.134Z,4.22
2022-09-07T08:07:15.118Z,5.18
2022-09-07T08:09:43.490Z,4.85
2022-09-07T08:12:12.120Z,4.43
2022-09-07T08:14:42.749Z,5.07
2022-09-07T08:17:10.659Z,4.68
2022-09-07T08:19:38.037Z,6.50
2022-09-07T08:22:05.183Z,6.75
2022-09-07T08:24:32.562Z,5.75
2022-09-07T08:26:59.689Z,5.70
2022-09-07T08:29:27.182Z,6.03
2022-09-07T08:31:54.868Z,3.55
2022-09-07T08:34:22.075Z,5.03
2022-09-07T08:36:49.219Z,5.63
2022-09-07T08:39:16.329Z,5.90
2022-09-07T08:41:53.644Z,8.32
2022-09-07T08:44:20.677Z,4.68
2022-09-07T08:46:50.131Z,7.88
2022-09-07T08:49:20.684Z,5.57
2022-09-07T08:51:54.789Z,5.97
2022-09-07T08:54:21.838Z,5.78
2022-09-07T08:59:49.572Z,4.60
2022-09-07T09:02:38.345Z,7.72
2022-09-07T09:05:21.162Z,9.75
2022-09-07T09:08:02.322Z,5.95
2022-09-07T09:10:33.401Z,7.38
2022-09-07T09:13:11.162Z,8.27
2022-09-07T09:15:44.607Z,7.53
2022-09-07T09:18:17.479Z,8.43
2022-09-07T09:20:50.311Z,10.65
2022-09-07T09:23:19.089Z,7.63
2022-09-07T09:25:56.234Z,5.10
2022-09-07T09:28:25.491Z,6.25
2022-09-07T09:30:54.758Z,3.88
2022-09-07T09:33:23.044Z,3.80
2022-09-07T09:35:51.550Z,7.13
2022-09-07T09:38:35.810Z,12.00
2022-09-07T09:41:10.251Z,7.97
2022-09-07T09:43:45.677Z,7.50
2022-09-07T09:46:18.754Z,6.80
2022-09-07T09:48:52.466Z,6.65
2022-09-07T09:54:17.939Z,7.82
2022-09-07T09:56:45.868Z,7.55
2022-09-07T10:05:20.792Z,9.18
2022-09-07T10:07:52.535Z,7.00
2022-09-07T10:10:19.842Z,6.93
2022-09-07T10:12:47.278Z,10.70
2022-09-07T10:15:27.879Z,5.57
2022-09-07T10:17:55.011Z,6.28
2022-09-07T10:20:22.059Z,8.85
2022-09-07T10:22:52.123Z,7.53
2022-09-07T10:25:39.678Z,6.87
2022-09-07T10:28:17.045Z,8.80
2022-09-07T10:31:09.854Z,5.82
2022-09-07T10:36:43.049Z,7.57
2022-09-07T10:39:15.440Z,12.45
2022-09-07T10:41:42.848Z,6.72
2022-09-07T10:44:15.106Z,9.68
2022-09-07T10:46:57.979Z,6.70
2022-09-07T10:52:46.922Z,10.30
2022-09-07T10:55:22.262Z,11.20
2022-09-07T10:58:01.614Z,9.93
2022-09-07T11:00:33.328Z,7.38
2022-09-07T11:03:28.314Z,10.20
2022-09-07T11:06:06.424Z,11.57
2022-09-07T11:14:18.289Z,9.60
2022-09-07T11:17:06.564Z,7.63
2022-09-07T11:19:42.874Z,28.17
2022-09-07T11:22:19.894Z,7.53
2022-09-07T11:27:45.226Z,9.00
2022-09-07T11:30:19.683Z,5.20
2022-09-07T11:32:59.071Z,8.20
2022-09-07T11:35:32.103Z,10.43
2022-09-07T11:38:03.790Z,7.90
2022-09-07T11:40:32.349Z,7.28
2022-09-07T11:43:19.642Z,6.95
2022-09-07T11:45:53.691Z,10.77
2022-09-07T11:48:30.923Z,10.60
2022-09-07T11:51:00.558Z,9.90
2022-09-07T11:53:29.694Z,7.60
2022-09-07T11:55:58.729Z,9.40
2022-09-07T11:58:35.134Z,13.25
2022-09-07T12:01:20.992Z,7.90
2022-09-07T12:03:54.180Z,9.27
2022-09-07T12:06:21.450Z,7.22
2022-09-07T12:09:08.805Z,7.97
2022-09-07T12:11:48.129Z,8.70
2022-09-07T12:14:33.753Z,12.43
2022-09-07T12:17:09.935Z,6.35
2022-09-07T12:19:37.100Z,7.28
2022-09-07T12:22:05.384Z,8.68
2022-09-07T12:24:43.731Z,5.97
2022-09-07T12:27:34.124Z,5.82
2022-09-07T12:30:04.094Z,9.48
2022-09-07T12:32:57.184Z,7.97
2022-09-07T12:35:28.345Z,12.23
2022-09-07T12:37:55.641Z,6.45
2022-09-07T12:40:28.710Z,6.68
2022-09-07T12:43:14.115Z,4.03
2022-09-07T12:45:41.904Z,12.05
2022-09-07T12:48:17.999Z,8.50
2022-09-07T12:51:03.690Z,6.18
2022-09-07T12:53:36.813Z,9.27
2022-09-07T12:56:21.986Z,7.55
2022-09-07T12:58:49.043Z,6.57
2022-09-07T13:01:34.376Z,10.05
2022-09-07T13:04:01.734Z,12.88
2022-09-07T13:09:39.164Z,8.60
2022-09-07T13:15:32.384Z,11.23
2022-09-07T13:18:00.648Z,6.25
2022-09-07T13:20:34.795Z,7.28
2022-09-07T13:23:09.449Z,7.25
2022-09-07T13:25:45.509Z,9.63
2022-09-07T13:28:23.971Z,7.63
2022-09-07T13:30:56.971Z,6.63
2022-09-07T13:33:30.226Z,8.82
2022-09-07T13:36:05.055Z,8.25
2022-09-07T13:38:33.093Z,4.72
2022-09-07T13:41:07.949Z,5.75
2022-09-07T13:43:35.396Z,7.82
2022-09-07T13:46:04.590Z,10.52
2022-09-07T13:48:35.933Z,7.03
2022-09-07T13:51:06.028Z,6.47
2022-09-07T13:53:43.415Z,16.30
2022-09-07T13:56:13.594Z,6.40
2022-09-07T13:58:42.338Z,5.87
2022-09-07T14:01:23.311Z,6.20
2022-09-07T14:03:59.425Z,8.43
2022-09-07T14:06:31.340Z,13.98
2022-09-07T14:09:00.041Z,11.23
2022-09-07T14:11:28.841Z,5.32
2022-09-07T14:14:16.431Z,13.27
2022-09-07T14:16:45.444Z,9.23
2022-09-07T14:19:18.276Z,8.13
2022-09-07T14:21:53.825Z,10.55
2022-09-07T14:24:24.660Z,11.98
2022-09-07T14:26:52.896Z,8.65
2022-09-07T14:29:23.822Z,5.60
2022-09-07T14:31:51.197Z,4.45
2022-09-07T14:34:19.821Z,7.68
2022-09-07T14:36:47.554Z,5.25
2022-09-07T14:39:15.466Z,5.30
2022-09-07T14:41:43.375Z,8.02
2022-09-07T14:44:30.190Z,4.65
2022-09-07T14:46:58.324Z,7.78
2022-09-07T14:49:25.514Z,7.43
2022-09-07T14:51:53.278Z,8.15
2022-09-07T14:54:25.895Z,5.63
2022-09-07T14:57:22.460Z,6.45
2022-09-07T14:59:49.543Z,8.85
2022-09-07T15:02:19.830Z,6.10
2022-09-07T15:04:47.725Z,7.93
2022-09-07T15:07:29.957Z,10.85
2022-09-07T15:10:12.607Z,13.95
2022-09-07T15:12:42.044Z,5.50
2022-09-07T15:15:27.107Z,9.55
2022-09-07T15:17:55.349Z,4.60
2022-09-07T15:20:32.537Z,6.95
2022-09-07T15:22:59.810Z,6.55
2022-09-07T15:25:26.880Z,11.95
2022-09-07T15:27:54.804Z,8.85
2022-09-07T15:30:21.904Z,16.00
2022-09-07T15:32:49.491Z,10.18
2022-09-07T15:35:16.702Z,9.35
2022-09-07T15:40:33.273Z,9.57
2022-09-07T15:43:02.078Z,9.13
2022-09-07T15:45:32.238Z,11.65
2022-09-07T15:47:59.334Z,6.05
2022-09-07T15:50:26.404Z,10.00
2022-09-07T15:52:53.464Z,8.90
2022-09-07T15:55:20.539Z,6.57
2022-09-07T15:57:49.312Z,8.77
2022-09-07T16:00:18.829Z,6.05
2022-09-07T16:05:35.624Z,9.15
2022-09-07T16:10:54.419Z,10.93
2022-09-07T16:13:24.255Z,8.98
2022-09-07T16:15:51.676Z,7.70
2022-09-07T16:18:19.601Z,8.18
2022-09-07T16:20:47.285Z,8.57
2022-09-07T16:23:16.826Z,10.68
2022-09-07T16:25:55.255Z,8.93
2022-09-07T16:28:22.659Z,11.70
2022-09-07T16:30:49.849Z,9.15
2022-09-07T16:33:16.988Z,6.68
2022-09-07T16:35:44.177Z,10.68
2022-09-07T16:40:59.050Z,8.93
2022-09-07T16:43:26.155Z,7.50
2022-09-07T16:46:06.562Z,7.63
2022-09-07T16:48:34.909Z,10.90
2022-09-07T16:51:02.950Z,9.43
2022-09-07T16:53:30.671Z,7.82
2022-09-07T16:56:01.752Z,9.80
2022-09-07T16:58:37.086Z,12.27
2022-09-07T17:01:05.556Z,8.40
2022-09-07T17:03:33.152Z,9.45
2022-09-07T17:06:01.047Z,8.05
2022-09-07T17:08:28.738Z,9.73
2022-09-07T17:11:00.735Z,10.13
2022-09-07T17:13:28.376Z,7.32
2022-09-07T17:15:55.650Z,7.85
2022-09-07T17:21:10.173Z,7.97
2022-09-07T17:23:45.597Z,7.85
2022-09-07T17:26:20.483Z,8.55
2022-09-07T17:28:50.465Z,12.48
2022-09-07T17:34:07.681Z,10.10
2022-09-07T17:36:35.581Z,13.10
2022-09-07T17:39:19.317Z,11.30
2022-09-07T17:41:54.460Z,10.65
2022-09-07T17:44:23.159Z,9.88
2022-09-07T17:46:50.399Z,15.02
2022-09-07T17:49:17.850Z,13.02
2022-09-07T17:51:45.771Z,13.10
2022-09-07T17:54:14.911Z,16.77
2022-09-07T17:56:42.498Z,14.25
2022-09-07T18:01:57.643Z,13.35
2022-09-07T18:04:24.990Z,19.15
2022-09-07T18:06:52.204Z,14.05
2022-09-07T18:09:19.811Z,15.18
2022-09-07T18:11:48.815Z,20.85
2022-09-07T18:14:16.801Z,16.30
2022-09-07T18:16:44.989Z,17.58
2022-09-07T18:19:12.507Z,17.17
2022-09-07T18:21:43.314Z,18.00
2022-09-07T18:24:18.762Z,17.40
2022-09-07T18:26:50.705Z,15.88
2022-09-07T18:29:29.442Z,18.98
2022-09-07T18:31:59.102Z,23.48
2022-09-07T18:34:26.527Z,19.20
2022-09-07T18:36:54.925Z,20.55
2022-09-07T18:39:22.351Z,18.73
2022-09-07T18:41:50.633Z,17.35
2022-09-07T18:47:06.530Z,19.40
2022-09-07T18:49:34.395Z,18.77
2022-09-07T18:54:50.329Z,16.95
2022-09-07T18:57:17.765Z,19.23
2022-09-07T18:59:45.012Z,18.02
2022-09-07T19:02:12.495Z,13.85
2022-09-07T19:07:29.891Z,21.13
2022-09-07T19:09:58.257Z,15.97
2022-09-07T19:12:25.671Z,22.75
2022-09-07T19:14:53.084Z,21.50
2022-09-07T19:17:20.504Z,25.40
2022-09-07T19:19:48.530Z,19.17
2022-09-07T19:22:15.771Z,23.13
2022-09-07T19:24:43.050Z,27.98
2022-09-07T19:27:10.301Z,26.58
2022-09-07T19:29:37.546Z,28.30
2022-09-07T19:32:04.897Z,25.92
2022-09-07T19:34:37.998Z,30.52
2022-09-07T19:37:05.885Z,27.83
2022-09-07T19:39:33.213Z,25.40
2022-09-07T19:42:00.620Z,28.80
2022-09-07T19:44:28.048Z,30.10
2022-09-07T19:46:55.412Z,27.23
2022-09-07T19:49:22.754Z,28.83
2022-09-07T19:51:52.097Z,27.02
2022-09-07T19:54:19.682Z,29.27
2022-09-07T19:56:46.868Z,24.58
2022-09-07T19:59:14.552Z,30.75
2022-09-07T20:01:46.168Z,26.52
2022-09-07T20:04:19.539Z,19.08
2022-09-07T20:06:49.670Z,20.35
2022-09-07T20:09:17.554Z,26.58
2022-09-07T20:11:46.919Z,29.10
2022-09-07T20:14:14.955Z,23.70
2022-09-07T20:16:42.113Z,21.33
2022-09-07T20:19:09.410Z,24.50
2022-09-07T20:21:36.983Z,20.70
2022-09-07T20:24:04.883Z,18.40
2022-09-07T20:26:32.468Z,18.63
2022-09-07T20:29:23.763Z,16.85
2022-09-07T20:31:47.424Z,17.85
2022-09-07T20:34:14.648Z,20.52
2022-09-07T20:36:41.846Z,19.17
2022-09-07T20:39:08.943Z,17.02
2022-09-07T20:41:36.293Z,21.27
2022-09-07T20:44:04.142Z,22.58
2022-09-07T20:46:31.525Z,16.48
2022-09-07T20:48:59.087Z,15.73
2022-09-07T20:51:26.507Z,16.48
2022-09-07T20:53:53.691Z,17.45
2022-09-07T20:56:20.773Z,17.02
2022-09-07T20:58:48.417Z,18.20
2022-09-07T21:01:18.861Z,16.05
2022-09-07T21:03:49.283Z,16.40
2022-09-07T21:06:17.217Z,18.10
2022-09-07T21:08:45.055Z,18.63
2022-09-07T21:11:16.741Z,26.13
2022-09-07T21:13:43.870Z,15.77
2022-09-07T21:16:12.324Z,18.25
2022-09-07T21:18:39.890Z,19.60
2022-09-07T21:21:22.663Z,19.75
2022-09-07T21:23:50.251Z,17.45
2022-09-07T21:26:20.875Z,15.30
2022-09-07T21:28:48.248Z,18.35
2022-09-07T21:31:16.249Z,17.58
2022-09-07T21:33:43.365Z,17.27
2022-09-07T21:36:12.282Z,21.67
2022-09-07T21:38:40.157Z,18.42
2022-09-07T21:41:08.121Z,19.13
2022-09-07T21:43:35.522Z,17.13
2022-09-07T21:46:08.273Z,20.70
2022-09-07T21:48:35.765Z,22.05
2022-09-07T21:51:03.105Z,17.83
2022-09-07T21:53:30.283Z,19.55
2022-09-07T21:55:58.402Z,21.70
2022-09-07T21:58:26.421Z,25.80
2022-09-07T22:00:53.845Z,16.00
2022-09-07T22:03:21.474Z,17.75
2022-09-07T22:05:48.578Z,20.88
2022-09-07T22:08:15.779Z,17.95
2022-09-07T22:10:43.349Z,20.63
2022-09-07T22:13:10.906Z,19.20
2022-09-07T22:15:43.091Z,22.70
2022-09-07T22:18:13.645Z,20.27
2022-09-07T22:20:41.041Z,23.73
2022-09-07T22:23:08.245Z,19.50
2022-09-07T22:25:35.452Z,21.67
2022-09-07T22:28:02.593Z,21.63
2022-09-07T22:30:29.744Z,21.45
2022-09-07T22:32:56.826Z,19.20
2022-09-07T22:35:24.778Z,16.95
2022-09-07T22:37:51.890Z,15.43
2022-09-07T22:40:18.954Z,16.00
2022-09-07T22:42:46.138Z,18.95
2022-09-07T22:45:13.400Z,16.52
2022-09-07T22:47:41.836Z,23.20
2022-09-07T22:50:09.297Z,20.17
2022-09-07T22:52:36.495Z,20.00
2022-09-07T22:55:04.309Z,16.38
2022-09-07T22:57:31.487Z,19.77
2022-09-07T22:59:58.654Z,21.30
2022-09-07T23:02:25.748Z,20.95
2022-09-07T23:04:52.964Z,18.10
2022-09-07T23:07:20.125Z,18.27
2022-09-07T23:09:47.611Z,19.45
2022-09-07T23:12:14.809Z,17.27
2022-09-07T23:14:41.921Z,17.55
2022-09-07T23:17:09.862Z,19.77
2022-09-07T23:19:36.970Z,19.63
2022-09-07T23:22:04.120Z,21.15
2022-09-07T23:24:31.354Z,20.95
2022-09-07T23:26:58.470Z,15.57
2022-09-07T23:29:25.614Z,19.65
2022-09-07T23:31:52.857Z,20.88
2022-09-07T23:34:19.964Z,20.05
2022-09-07T23:36:47.068Z,19.30
2022-09-07T23:39:14.252Z,17.08
2022-09-07T23:41:41.493Z,21.02
2022-09-07T23:44:08.668Z,16.25
2022-09-07T23:46:35.873Z,21.48
2022-09-07T23:49:03.064Z,17.40
2022-09-07T23:51:30.261Z,17.35
2022-09-07T23:53:57.716Z,15.55
2022-09-07T23:56:24.845Z,20.00
2022-09-07T23:58:52.221Z,18.33
